Watertown International Airport
KART : now visible

Airfield :











YOU CAN JOIN US ON...

 
LOGIN :

Register | Disclaimer

   EN    FR    IT 

 









Legend :    VFR   Marginal VFR   IFR   Intensive IFR   Very Intensive IFR
Visi :
Ceiling :
>= 8 km
>= 3000ft
5 to 8 km
1000 to 3000 ft
1500m to 5 km
500 to 1000 ft
800 to 1500m
200 to 500 ft
< 800m
< 200 ft
Symbols :   Thunderstorms  Fog  Heavy snow  Heavy precipitations  Wind > 20 kt







- Airport Elevation : 325 ft
- IATA code : ART


KART - Watertown International

CURRENT METAR :
  • 160556Z AUTO 08004KT 1/4SM FG VV001 08/07 A3012 RMK AO2 SLP198 T00780067 10150 20067 57000 $

EXPIRED METARs :
  • 160529Z AUTO 09003KT 1/2SM FG VV001 08/07 A3012 RMK AO2 T00780072 $
  • 160456Z AUTO 00000KT 1/4SM FG VV002 09/08 A3012 RMK AO2 SLP197 T00890083 402000072 $
  • 160433Z AUTO 10003KT 1/2SM FG CLR 09/08 A3011 RMK AO2 T00890083 $
  • 160425Z AUTO 00000KT 1SM BR VV001 09/08 A3011 RMK AO2 VIS 1/2V4 T00890083 $
  • 160356Z AUTO 00000KT 1/4SM FG VV001 09/08 A3012 RMK AO2 SLP197 T00940083 $
  • 160345Z AUTO 06003KT 1/4SM FG VV002 10/09 A3011 RMK AO2 T01000094 $
  • 160322Z AUTO 00000KT 2SM BR CLR 10/10 A3011 RMK AO2 T01000100 $
  • 160313Z AUTO 00000KT 1/2SM FG CLR 10/09 A3011 RMK AO2 T01000094 $
  • 160256Z AUTO 10003KT 2 1/2SM BR CLR 11/11 A3010 RMK AO2 VIS 1 1/4V4 SLP193 T01060106 58000 $

TAF KART
Valid from the 16 at 06:00 until the 17 at 06:00 UTC


160538Z 1606/1706 VRB03KT 1/4SM FG VV001
TEMPO 1606/1610 4SM BR SCT001
FM161000 VRB03KT 4SM BR SCT120
FM161200 VRB03KT P6SM FEW250
FM161600 35005KT P6SM FEW250
FM162000 32006KT P6SM FEW250
FM162300 VRB03KT P6SM FEW250
No reported NOTAMs for that airfield.



MET'MAP, your aeronautical weather chart ! - Copyright ORBIFLY December 2007 - Disclaimer

ORBIFLY MET'MAP TEAM :

Programming & Development : Alexandra Zaïnal
Concept & Development : Baudouin d'Aumeries
Co-Development & Prog : Marc-Olivier Méhu
Technical & hardware support : Manuel Goepfert

Contact : metmap@orbifly.com




SOURCES & CREDITS :

   NOAA       Earth
Advisory